createdAt,value
2022-09-15T00:16:30.186Z,16.04
2022-09-15T00:35:03.942Z,16.03
2022-09-15T00:56:08.988Z,15.98
2022-09-15T01:16:52.968Z,15.96
2022-09-15T01:36:11.172Z,15.94
2022-09-15T01:56:11.538Z,15.87
2022-09-15T02:16:37.140Z,15.75
2022-09-15T02:36:18.531Z,15.74
2022-09-15T02:56:26.448Z,15.76
2022-09-15T03:15:44.548Z,15.52
2022-09-15T03:36:18.868Z,15.48
2022-09-15T03:56:51.057Z,15.4
2022-09-15T04:16:14.165Z,15.34
2022-09-15T04:35:52.191Z,15.32
2022-09-15T04:56:32.463Z,15.33
2022-09-15T05:16:13.548Z,15.34
2022-09-15T05:36:57.068Z,15.34
2022-09-15T05:57:04.411Z,15.06
2022-09-15T06:15:55.405Z,15.13
2022-09-15T06:36:24.253Z,15.04
2022-09-15T06:56:17.647Z,14.72
2022-09-15T07:15:59.338Z,14.35
2022-09-15T07:37:00.703Z,14.22
2022-09-15T07:56:40.825Z,14.41
2022-09-15T08:16:06.643Z,14.78
2022-09-15T08:35:55.321Z,14.25
2022-09-15T08:56:13.399Z,14.63
2022-09-15T09:16:57.676Z,14.69
2022-09-15T09:36:24.562Z,14.94
2022-09-15T09:56:25.949Z,15.15
2022-09-15T10:17:00.536Z,15.45
2022-09-15T10:36:56.309Z,16.05
2022-09-15T10:56:48.968Z,16.42
2022-09-15T11:15:25.570Z,16.96
2022-09-15T11:36:53.090Z,17.66
2022-09-15T11:57:07.232Z,18.06
2022-09-15T12:15:54.246Z,18.63
2022-09-15T12:35:40.362Z,18.01
2022-09-15T12:56:39.338Z,18.19
2022-09-15T13:16:10.584Z,19
2022-09-15T13:38:02.966Z,18.86
2022-09-15T13:56:30.213Z,18.79
2022-09-15T14:16:30.590Z,17.3
2022-09-15T14:35:46.223Z,17.42
2022-09-15T14:56:48.039Z,16.95
2022-09-15T15:16:21.919Z,16.31
2022-09-15T15:35:38.706Z,16.38
2022-09-15T15:55:54.755Z,16.24
2022-09-15T16:15:44.504Z,16.15
2022-09-15T16:36:29.493Z,15.98
2022-09-15T16:56:39.410Z,15.7
2022-09-15T17:15:51.609Z,15.31
2022-09-15T17:35:39.055Z,14.9
2022-09-15T17:56:40.955Z,14.63
2022-09-15T18:15:52.921Z,14.46
2022-09-15T18:36:28.959Z,14.37
2022-09-15T18:57:05.430Z,14.26
2022-09-15T19:16:20.099Z,14.16
2022-09-15T19:36:37.062Z,14.16
2022-09-15T19:56:43.049Z,14.02
2022-09-15T20:16:29.560Z,13.97
2022-09-15T20:36:52.906Z,14.04
2022-09-15T20:55:50.502Z,14.13
2022-09-15T21:15:51.506Z,14.13
2022-09-15T21:35:45.463Z,14.1
2022-09-15T21:56:34.377Z,14.11
2022-09-15T22:16:42.083Z,14.01
2022-09-15T22:36:40.519Z,13.9
2022-09-15T22:56:37.724Z,13.77
2022-09-15T23:15:22.865Z,13.65
2022-09-15T23:36:11.242Z,13.57
2022-09-15T23:56:24.848Z,13.43
